createdAt,value
2019-01-13T00:00:58.010Z,0.00
2019-01-13T00:01:57.931Z,0.00
2019-01-13T00:02:57.947Z,0.00
2019-01-13T00:03:58.811Z,0.00
2019-01-13T00:04:57.857Z,0.00
2019-01-13T00:05:57.844Z,0.00
2019-01-13T00:06:57.761Z,0.00
2019-01-13T00:07:57.735Z,0.00
2019-01-13T00:08:57.897Z,0.00
2019-01-13T00:09:57.663Z,0.00
2019-01-13T00:10:57.660Z,0.00
2019-01-13T00:11:57.593Z,0.00
2019-01-13T00:12:57.885Z,0.00
2019-01-13T00:13:57.527Z,0.00
2019-01-13T00:14:57.498Z,0.00
2019-01-13T00:15:57.464Z,0.00
2019-01-13T00:16:58.316Z,0.00
2019-01-13T00:17:57.449Z,0.00
2019-01-13T00:18:57.363Z,0.00
2019-01-13T00:19:57.333Z,0.00
2019-01-13T00:20:57.817Z,0.00
2019-01-13T00:21:57.407Z,0.00
2019-01-13T00:22:57.266Z,0.00
2019-01-13T00:23:57.208Z,0.00
2019-01-13T00:24:57.193Z,0.00
2019-01-13T00:25:57.183Z,0.00
2019-01-13T00:26:57.113Z,0.00
2019-01-13T00:27:57.114Z,0.00
2019-01-13T00:28:57.819Z,0.00
2019-01-13T00:29:57.012Z,0.00
2019-01-13T00:30:56.984Z,0.00
2019-01-13T00:31:56.945Z,0.00
2019-01-13T00:32:56.945Z,0.00
2019-01-13T00:33:56.886Z,0.00
2019-01-13T00:34:56.888Z,0.00
2019-01-13T00:35:56.814Z,0.00
2019-01-13T00:36:56.779Z,0.00
2019-01-13T00:37:56.867Z,0.00
2019-01-13T00:38:56.753Z,0.00
2019-01-13T00:39:56.719Z,0.00
2019-01-13T00:40:56.644Z,0.00
2019-01-13T00:41:56.612Z,0.00
2019-01-13T00:42:56.577Z,0.00
2019-01-13T00:43:56.602Z,0.00
2019-01-13T00:44:56.568Z,0.00
2019-01-13T00:45:56.479Z,0.00
2019-01-13T00:46:56.444Z,0.00
2019-01-13T00:47:56.415Z,0.00
2019-01-13T00:48:56.376Z,0.00
2019-01-13T00:49:56.448Z,0.00
2019-01-13T00:50:56.311Z,0.00
2019-01-13T00:51:56.287Z,0.00
2019-01-13T00:52:56.250Z,0.00
2019-01-13T00:53:56.217Z,0.00
2019-01-13T00:54:56.234Z,0.00
2019-01-13T00:55:56.147Z,0.00
2019-01-13T00:56:56.118Z,0.00
2019-01-13T00:57:56.085Z,0.00
2019-01-13T00:58:56.047Z,0.00
2019-01-13T00:59:56.072Z,0.00
2019-01-13T01:00:56.819Z,0.00
2019-01-13T01:01:55.951Z,0.00
2019-01-13T01:02:55.917Z,0.00
2019-01-13T01:03:55.879Z,0.00
2019-01-13T01:04:56.384Z,0.00
2019-01-13T01:05:55.816Z,0.00
2019-01-13T01:06:55.782Z,0.00
2019-01-13T01:07:55.755Z,0.00
2019-01-13T01:08:55.719Z,0.00
2019-01-13T01:09:55.723Z,0.00
2019-01-13T01:10:55.711Z,0.00
2019-01-13T01:11:55.616Z,0.00
2019-01-13T01:12:56.948Z,0.00
2019-01-13T01:13:55.556Z,0.00
2019-01-13T01:14:55.527Z,0.00
2019-01-13T01:15:55.557Z,0.00
2019-01-13T01:16:55.453Z,0.00
2019-01-13T01:17:55.428Z,0.00
2019-01-13T01:18:56.318Z,0.00
2019-01-13T01:19:55.359Z,0.00
2019-01-13T01:20:55.362Z,0.00
2019-01-13T01:21:55.292Z,0.00
2019-01-13T01:22:55.818Z,0.00
2019-01-13T01:23:55.227Z,0.00
2019-01-13T01:24:55.193Z,0.00
2019-01-13T01:25:55.443Z,0.00
2019-01-13T01:26:55.828Z,0.00
2019-01-13T01:27:55.137Z,0.00
2019-01-13T01:28:55.057Z,0.00
2019-01-13T01:29:55.030Z,0.00
2019-01-13T01:30:55.821Z,0.00
2019-01-13T01:31:54.964Z,0.00
2019-01-13T01:32:54.980Z,0.00
2019-01-13T01:33:55.019Z,0.00
2019-01-13T01:34:54.867Z,0.00
2019-01-13T01:35:54.833Z,0.00
2019-01-13T01:36:54.797Z,0.00
2019-01-13T01:37:54.804Z,0.00
2019-01-13T01:38:55.322Z,0.00
2019-01-13T01:39:54.711Z,0.00
2019-01-13T01:40:54.753Z,0.00
2019-01-13T01:41:54.628Z,0.00
2019-01-13T01:42:54.594Z,0.00
2019-01-13T01:43:55.321Z,0.00
2019-01-13T01:44:54.534Z,0.00
2019-01-13T01:45:54.533Z,0.00
2019-01-13T01:46:54.466Z,0.00
2019-01-13T01:47:55.323Z,0.00
2019-01-13T01:48:54.438Z,0.00
2019-01-13T01:49:54.363Z,0.00
2019-01-13T01:50:54.336Z,0.00
2019-01-13T01:51:54.822Z,0.00
2019-01-13T01:52:54.321Z,0.00
2019-01-13T01:53:54.233Z,0.00
2019-01-13T01:54:54.249Z,0.00
2019-01-13T01:55:54.166Z,0.00
2019-01-13T01:56:54.144Z,0.00
2019-01-13T01:57:54.103Z,0.00
2019-01-13T01:58:54.067Z,0.00
2019-01-13T01:59:54.076Z,0.00
2019-01-13T02:00:56.016Z,0.00
2019-01-13T02:01:54.028Z,0.00
2019-01-13T02:02:53.936Z,0.00
2019-01-13T02:03:53.935Z,0.00
2019-01-13T02:04:53.889Z,0.00
2019-01-13T02:05:54.393Z,0.00
2019-01-13T02:06:53.808Z,0.00
2019-01-13T02:07:53.777Z,0.00
2019-01-13T02:08:53.745Z,0.00
2019-01-13T02:09:53.708Z,0.00
2019-01-13T02:10:53.712Z,0.00
2019-01-13T02:11:53.652Z,0.00
2019-01-13T02:12:53.605Z,0.00
2019-01-13T02:13:53.570Z,0.00
2019-01-13T02:14:53.597Z,0.00
2019-01-13T02:15:53.574Z,0.00
2019-01-13T02:16:53.472Z,0.00
2019-01-13T02:17:53.441Z,0.00
2019-01-13T02:18:53.406Z,0.00
2019-01-13T02:19:53.382Z,0.00
2019-01-13T02:20:53.388Z,0.00
2019-01-13T02:21:53.375Z,0.00
2019-01-13T02:22:53.276Z,0.00
2019-01-13T02:23:53.240Z,0.00
2019-01-13T02:24:53.825Z,0.00
2019-01-13T02:25:53.212Z,0.00
2019-01-13T02:26:53.186Z,0.00
2019-01-13T02:27:53.110Z,0.00
2019-01-13T02:28:53.079Z,0.00
2019-01-13T02:29:53.043Z,0.00
2019-01-13T02:30:53.014Z,0.00
2019-01-13T02:31:53.107Z,0.00
2019-01-13T02:32:53.114Z,0.00
2019-01-13T02:33:52.985Z,0.00
2019-01-13T02:34:52.897Z,0.00
2019-01-13T02:35:52.844Z,0.00
2019-01-13T02:36:52.812Z,0.00
2019-01-13T02:37:52.885Z,0.00
2019-01-13T02:38:52.752Z,0.00
2019-01-13T02:39:52.754Z,0.00
2019-01-13T02:40:52.682Z,0.00
2019-01-13T02:41:52.649Z,0.00
2019-01-13T02:42:53.412Z,0.00
2019-01-13T02:43:52.590Z,0.00
2019-01-13T02:44:52.553Z,0.00
2019-01-13T02:45:52.514Z,0.00
2019-01-13T02:46:53.324Z,0.00
2019-01-13T02:47:52.500Z,0.00
2019-01-13T02:48:52.418Z,0.00
2019-01-13T02:49:52.384Z,0.00
2019-01-13T02:50:52.348Z,0.00
2019-01-13T02:51:52.361Z,0.00
2019-01-13T02:52:52.288Z,0.00
2019-01-13T02:53:52.305Z,0.00
2019-01-13T02:54:52.222Z,0.00
2019-01-13T02:55:52.207Z,0.00
2019-01-13T02:56:52.154Z,0.00
2019-01-13T02:57:52.118Z,0.00
2019-01-13T02:58:52.121Z,0.00
2019-01-13T02:59:52.109Z,0.00
2019-01-13T03:00:57.087Z,0.00
2019-01-13T03:01:51.990Z,0.00
2019-01-13T03:02:51.955Z,0.00
2019-01-13T03:03:51.921Z,0.00
2019-01-13T03:04:51.960Z,0.00
2019-01-13T03:05:51.863Z,0.00
2019-01-13T03:06:51.832Z,0.00
2019-01-13T03:07:52.334Z,0.00
2019-01-13T03:08:51.752Z,0.00
2019-01-13T03:09:51.781Z,0.00
2019-01-13T03:10:51.695Z,0.00
2019-01-13T03:11:51.719Z,0.00
2019-01-13T03:12:51.623Z,0.00
2019-01-13T03:13:51.596Z,0.00
2019-01-13T03:14:51.588Z,0.00
2019-01-13T03:15:51.525Z,0.00
2019-01-13T03:16:51.531Z,0.00
2019-01-13T03:17:51.459Z,0.00
2019-01-13T03:18:51.429Z,0.00
2019-01-13T03:19:51.406Z,0.00
2019-01-13T03:20:51.402Z,0.00
2019-01-13T03:21:51.344Z,0.00
2019-01-13T03:22:51.304Z,0.00
2019-01-13T03:23:51.264Z,0.00
2019-01-13T03:24:51.246Z,0.00
2019-01-13T03:25:51.243Z,0.00
2019-01-13T03:26:51.190Z,0.00
2019-01-13T03:27:51.136Z,0.00
2019-01-13T03:28:51.147Z,0.00
2019-01-13T03:29:51.093Z,0.00
2019-01-13T03:30:51.033Z,0.00
2019-01-13T03:31:50.999Z,0.00
2019-01-13T03:32:50.970Z,0.00
2019-01-13T03:33:50.979Z,0.00
2019-01-13T03:34:50.915Z,0.00
2019-01-13T03:35:50.892Z,0.00
2019-01-13T03:36:50.836Z,0.00
2019-01-13T03:37:50.853Z,0.00
2019-01-13T03:38:50.771Z,0.00
2019-01-13T03:39:50.730Z,0.00
2019-01-13T03:40:50.749Z,0.00
2019-01-13T03:41:50.669Z,0.00
2019-01-13T03:42:50.671Z,0.00
2019-01-13T03:43:50.645Z,0.00
2019-01-13T03:44:50.565Z,0.00
2019-01-13T03:45:50.601Z,0.00
2019-01-13T03:46:50.511Z,0.00
2019-01-13T03:47:50.476Z,0.00
2019-01-13T03:48:50.434Z,0.00
2019-01-13T03:49:50.472Z,0.00
2019-01-13T03:50:50.417Z,0.00
2019-01-13T03:51:50.341Z,0.00
2019-01-13T03:52:53.101Z,0.00
2019-01-13T03:53:50.271Z,0.00
2019-01-13T03:54:50.238Z,0.00
2019-01-13T03:55:50.390Z,0.00
2019-01-13T03:56:50.177Z,0.00
2019-01-13T03:57:50.155Z,0.00
2019-01-13T03:58:50.114Z,0.00
2019-01-13T03:59:50.112Z,0.00
2019-01-13T04:00:50.085Z,0.00
2019-01-13T04:01:50.007Z,0.00
2019-01-13T04:02:49.973Z,0.00
2019-01-13T04:03:49.980Z,0.00
2019-01-13T04:04:49.914Z,0.00
2019-01-13T04:05:49.917Z,0.00
2019-01-13T04:06:49.891Z,0.00
2019-01-13T04:07:49.822Z,0.00
2019-01-13T04:08:49.782Z,0.00
2019-01-13T04:09:49.746Z,0.00
2019-01-13T04:10:49.715Z,0.00
2019-01-13T04:11:49.727Z,0.00
2019-01-13T04:12:49.644Z,0.00
2019-01-13T04:13:49.618Z,0.00
2019-01-13T04:14:49.606Z,0.00
2019-01-13T04:15:49.545Z,0.00
2019-01-13T04:16:49.551Z,0.00
2019-01-13T04:17:49.482Z,0.00
2019-01-13T04:18:49.462Z,0.00
2019-01-13T04:19:49.414Z,0.00
2019-01-13T04:20:49.381Z,0.00
2019-01-13T04:21:49.393Z,0.00
2019-01-13T04:22:49.319Z,0.00
2019-01-13T04:23:49.283Z,0.00
2019-01-13T04:24:49.255Z,0.00
2019-01-13T04:25:49.215Z,0.00
2019-01-13T04:26:49.231Z,0.00
2019-01-13T04:27:49.149Z,0.00
2019-01-13T04:28:49.190Z,0.00
2019-01-13T04:29:49.086Z,0.00
2019-01-13T04:30:49.053Z,0.00
2019-01-13T04:31:49.080Z,0.00
2019-01-13T04:32:49.031Z,0.00
2019-01-13T04:33:48.998Z,0.00
2019-01-13T04:34:48.935Z,0.00
2019-01-13T04:35:48.898Z,0.00
2019-01-13T04:36:48.858Z,0.00
2019-01-13T04:37:48.881Z,0.00
2019-01-13T04:38:48.796Z,0.00
2019-01-13T04:39:48.762Z,0.00
2019-01-13T04:40:48.721Z,0.00
2019-01-13T04:41:48.700Z,0.00
2019-01-13T04:42:48.715Z,0.00
2019-01-13T04:43:48.627Z,0.00
2019-01-13T04:44:48.591Z,0.00
2019-01-13T04:45:48.559Z,0.00
2019-01-13T04:46:48.627Z,0.00
2019-01-13T04:47:48.542Z,0.00
2019-01-13T04:48:48.475Z,0.00
2019-01-13T04:49:48.472Z,0.00
2019-01-13T04:50:48.391Z,0.00
2019-01-13T04:51:48.359Z,0.00
2019-01-13T04:52:48.338Z,0.00
2019-01-13T04:53:48.293Z,0.00
2019-01-13T04:54:48.309Z,0.00
2019-01-13T04:55:48.274Z,0.00
2019-01-13T04:56:48.197Z,0.00
2019-01-13T04:57:48.167Z,0.00
2019-01-13T04:58:48.174Z,0.00
2019-01-13T04:59:48.095Z,0.00
2019-01-13T05:00:48.112Z,0.00
2019-01-13T05:01:48.079Z,0.00
2019-01-13T05:02:48.000Z,0.00
2019-01-13T05:03:47.976Z,0.00
2019-01-13T05:04:47.989Z,0.00
2019-01-13T05:05:47.896Z,0.00
2019-01-13T05:06:47.867Z,0.00
2019-01-13T05:07:47.850Z,0.00
2019-01-13T05:08:47.840Z,0.00
2019-01-13T05:09:47.788Z,0.00
2019-01-13T05:10:47.794Z,0.00
2019-01-13T05:11:47.713Z,0.00
2019-01-13T05:12:47.671Z,0.00
2019-01-13T05:13:47.644Z,0.00
2019-01-13T05:14:47.608Z,0.00
2019-01-13T05:15:47.614Z,0.00
2019-01-13T05:16:47.682Z,0.00
2019-01-13T05:17:47.524Z,0.00
2019-01-13T05:18:47.522Z,0.00
2019-01-13T05:19:47.437Z,0.00
2019-01-13T05:20:47.425Z,0.00
2019-01-13T05:21:47.403Z,0.00
2019-01-13T05:22:47.343Z,0.00
2019-01-13T05:23:47.351Z,0.00
2019-01-13T05:24:47.275Z,0.00
2019-01-13T05:25:47.250Z,0.00
2019-01-13T05:26:47.233Z,0.00
2019-01-13T05:27:47.214Z,0.00
2019-01-13T05:28:47.297Z,0.00
2019-01-13T05:29:47.114Z,0.00
2019-01-13T05:30:47.077Z,0.00
2019-01-13T05:31:47.063Z,0.00
2019-01-13T05:32:47.014Z,0.00
2019-01-13T05:33:47.029Z,0.00
2019-01-13T05:34:46.944Z,0.00
2019-01-13T05:35:46.957Z,0.00
2019-01-13T05:36:46.912Z,0.00
2019-01-13T05:37:46.846Z,0.00
2019-01-13T05:38:46.819Z,0.00
2019-01-13T05:39:46.780Z,0.00
2019-01-13T05:40:46.810Z,0.00
2019-01-13T05:41:46.736Z,0.00
2019-01-13T05:42:46.692Z,0.00
2019-01-13T05:43:46.652Z,0.00
2019-01-13T05:44:46.624Z,0.00
2019-01-13T05:45:46.642Z,0.00
2019-01-13T05:46:46.602Z,0.00
2019-01-13T05:47:46.520Z,0.00
2019-01-13T05:48:46.488Z,0.00
2019-01-13T05:49:46.468Z,0.00
2019-01-13T05:50:46.478Z,0.00
2019-01-13T05:51:46.402Z,0.00
2019-01-13T05:52:46.369Z,0.00
2019-01-13T05:53:46.326Z,0.00
2019-01-13T05:54:46.295Z,0.00
2019-01-13T05:55:46.308Z,0.00
2019-01-13T05:56:46.233Z,0.00
2019-01-13T05:57:46.191Z,0.00
2019-01-13T05:58:46.161Z,0.00
2019-01-13T05:59:46.127Z,0.00
2019-01-13T06:00:46.136Z,0.00
2019-01-13T06:01:49.311Z,0.00
2019-01-13T06:02:46.046Z,0.00
2019-01-13T06:03:46.863Z,0.00
2019-01-13T06:04:45.968Z,0.00
2019-01-13T06:05:45.984Z,0.00
2019-01-13T06:06:45.943Z,0.00
2019-01-13T06:07:45.865Z,0.00
2019-01-13T06:08:45.828Z,0.00
2019-01-13T06:09:45.801Z,0.00
2019-01-13T06:10:45.765Z,0.00
2019-01-13T06:11:45.778Z,0.00
2019-01-13T06:12:45.700Z,0.00
2019-01-13T06:13:45.671Z,0.00
2019-01-13T06:14:45.671Z,0.00
2019-01-13T06:15:45.834Z,0.00
2019-01-13T06:16:45.616Z,0.00
2019-01-13T06:17:45.539Z,0.00
2019-01-13T06:18:45.510Z,0.00
2019-01-13T06:19:45.469Z,0.00
2019-01-13T06:20:45.455Z,0.00
2019-01-13T06:21:45.452Z,0.00
2019-01-13T06:22:45.373Z,0.00
2019-01-13T06:23:45.372Z,0.00
2019-01-13T06:24:45.308Z,0.00
2019-01-13T06:25:45.276Z,0.00
2019-01-13T06:26:45.304Z,0.00
2019-01-13T06:27:45.212Z,0.00
2019-01-13T06:28:45.180Z,0.00
2019-01-13T06:29:45.143Z,0.00
2019-01-13T06:30:45.117Z,0.00
2019-01-13T06:31:45.122Z,0.00
2019-01-13T06:32:45.099Z,0.00
2019-01-13T06:33:45.035Z,0.00
2019-01-13T06:34:44.981Z,0.00
2019-01-13T06:35:44.947Z,0.00
2019-01-13T06:36:44.920Z,0.00
2019-01-13T06:37:44.926Z,0.00
2019-01-13T06:38:44.919Z,0.00
2019-01-13T06:39:44.819Z,4.00
2019-01-13T06:40:44.801Z,4.00
2019-01-13T06:41:44.752Z,0.00
2019-01-13T06:42:44.717Z,0.00
2019-01-13T06:43:44.732Z,4.00
2019-01-13T06:44:44.654Z,4.00
2019-01-13T06:45:44.630Z,0.00
2019-01-13T06:46:44.589Z,4.00
2019-01-13T06:47:44.607Z,4.00
2019-01-13T06:48:44.524Z,8.00
2019-01-13T06:49:44.549Z,8.00
2019-01-13T06:50:44.460Z,8.00
2019-01-13T06:51:44.428Z,8.00
2019-01-13T06:52:44.393Z,12.00
2019-01-13T06:53:44.380Z,12.00
2019-01-13T06:54:44.381Z,12.00
2019-01-13T06:55:44.295Z,12.00
2019-01-13T06:56:44.259Z,12.00
2019-01-13T06:57:44.227Z,16.00
2019-01-13T06:58:44.202Z,16.00
2019-01-13T06:59:44.222Z,24.00
2019-01-13T07:00:44.128Z,24.00
2019-01-13T07:01:44.134Z,24.00
2019-01-13T07:02:44.066Z,28.00
2019-01-13T07:03:44.037Z,32.00
2019-01-13T07:04:44.063Z,36.00
2019-01-13T07:05:44.004Z,40.00
2019-01-13T07:06:43.936Z,48.00
2019-01-13T07:07:43.900Z,56.00
2019-01-13T07:08:43.882Z,60.00
2019-01-13T07:09:43.884Z,68.00
2019-01-13T07:10:43.806Z,68.00
2019-01-13T07:11:43.774Z,92.00
2019-01-13T07:12:43.782Z,128.00
2019-01-13T07:13:43.707Z,132.00
2019-01-13T07:14:43.678Z,128.00
2019-01-13T07:15:43.682Z,132.00
2019-01-13T07:16:43.609Z,144.00
2019-01-13T07:17:43.621Z,192.00
2019-01-13T07:18:43.543Z,212.00
2019-01-13T07:19:43.514Z,212.00
2019-01-13T07:20:43.529Z,196.00
2019-01-13T07:21:43.446Z,184.00
2019-01-13T07:22:43.454Z,204.00
2019-01-13T07:23:43.386Z,244.00
2019-01-13T07:24:43.355Z,232.00
2019-01-13T07:25:43.315Z,196.00
2019-01-13T07:26:43.287Z,168.00
2019-01-13T07:27:43.295Z,184.00
2019-01-13T07:28:43.220Z,212.00
2019-01-13T07:29:43.190Z,244.00
2019-01-13T07:30:43.210Z,236.00
2019-01-13T07:31:43.121Z,220.00
2019-01-13T07:32:43.086Z,208.00
2019-01-13T07:33:43.060Z,248.00
2019-01-13T07:34:43.022Z,244.00
2019-01-13T07:35:43.029Z,268.00
2019-01-13T07:36:42.968Z,288.00
2019-01-13T07:37:42.926Z,300.00
2019-01-13T07:38:42.937Z,396.00
2019-01-13T07:39:42.861Z,484.00
2019-01-13T07:40:43.371Z,464.00
2019-01-13T07:41:42.797Z,492.00
2019-01-13T07:42:42.761Z,548.00
2019-01-13T07:43:42.796Z,552.00
2019-01-13T07:44:42.731Z,588.00
2019-01-13T07:45:42.709Z,604.00
2019-01-13T07:46:42.629Z,632.00
2019-01-13T07:47:42.605Z,492.00
2019-01-13T07:48:42.577Z,440.00
2019-01-13T07:49:42.537Z,560.00
2019-01-13T07:50:42.650Z,488.00
2019-01-13T07:51:42.472Z,404.00
2019-01-13T07:52:42.439Z,332.00
2019-01-13T07:53:42.417Z,336.00
2019-01-13T07:54:42.381Z,368.00
2019-01-13T07:55:42.388Z,404.00
2019-01-13T07:56:42.338Z,468.00
2019-01-13T07:57:42.316Z,488.00
2019-01-13T07:58:42.246Z,572.00
2019-01-13T07:59:42.218Z,584.00
2019-01-13T08:00:42.228Z,552.00
2019-01-13T08:01:42.151Z,580.00
2019-01-13T08:02:42.118Z,476.00
2019-01-13T08:03:42.084Z,604.00
2019-01-13T08:04:42.060Z,832.00
2019-01-13T08:05:42.069Z,860.00
2019-01-13T08:06:42.012Z,864.00
2019-01-13T08:07:42.001Z,720.00
2019-01-13T08:08:41.934Z,592.00
2019-01-13T08:09:41.892Z,572.00
2019-01-13T08:10:41.857Z,640.00
2019-01-13T08:11:41.874Z,624.00
2019-01-13T08:12:41.833Z,680.00
2019-01-13T08:13:41.802Z,748.00
2019-01-13T08:14:41.815Z,952.00
2019-01-13T08:15:41.737Z,1108.00
2019-01-13T08:16:41.666Z,1248.00
2019-01-13T08:17:41.635Z,1264.00
2019-01-13T08:18:41.646Z,1156.00
2019-01-13T08:19:41.574Z,1272.00
2019-01-13T08:20:41.536Z,1452.00
2019-01-13T08:21:41.502Z,1492.00
2019-01-13T08:22:41.512Z,1296.00
2019-01-13T08:23:41.481Z,1232.00
2019-01-13T08:24:41.412Z,1308.00
2019-01-13T08:25:41.377Z,1692.00
2019-01-13T08:26:41.347Z,1380.00
2019-01-13T08:27:41.339Z,1156.00
2019-01-13T08:28:41.325Z,1244.00
2019-01-13T08:29:41.249Z,1288.00
2019-01-13T08:30:41.216Z,1256.00
2019-01-13T08:31:41.183Z,1128.00
2019-01-13T08:32:41.156Z,848.00
2019-01-13T08:33:41.163Z,872.00
2019-01-13T08:34:41.641Z,876.00
2019-01-13T08:35:41.061Z,980.00
2019-01-13T08:36:41.029Z,924.00
2019-01-13T08:37:40.990Z,996.00
2019-01-13T08:38:41.004Z,948.00
2019-01-13T08:39:40.932Z,1200.00
2019-01-13T08:40:40.903Z,1504.00
2019-01-13T08:41:40.868Z,1504.00
2019-01-13T08:42:40.834Z,1436.00
2019-01-13T08:43:40.847Z,1256.00
2019-01-13T08:44:40.772Z,1344.00
2019-01-13T08:45:42.107Z,1440.00
2019-01-13T08:46:40.705Z,1228.00
2019-01-13T08:47:40.669Z,900.00
2019-01-13T08:48:40.682Z,1136.00
2019-01-13T08:49:41.381Z,1076.00
2019-01-13T08:50:40.617Z,968.00
2019-01-13T08:51:40.546Z,1052.00
2019-01-13T08:52:40.521Z,1128.00
2019-01-13T08:53:40.485Z,1224.00
2019-01-13T08:54:40.503Z,1292.00
2019-01-13T08:55:40.428Z,1380.00
2019-01-13T08:56:40.383Z,1624.00
2019-01-13T08:57:40.388Z,2236.00
2019-01-13T08:58:40.327Z,2316.00
2019-01-13T08:59:40.382Z,2180.00
2019-01-13T09:00:40.303Z,2200.00
2019-01-13T09:01:40.223Z,2292.00
2019-01-13T09:02:40.199Z,2560.00
2019-01-13T09:03:40.162Z,2200.00
2019-01-13T09:04:40.132Z,2072.00
2019-01-13T09:05:40.163Z,1904.00
2019-01-13T09:06:40.068Z,1764.00
2019-01-13T09:07:40.115Z,1768.00
2019-01-13T09:08:40.052Z,1668.00
2019-01-13T09:09:39.970Z,1604.00
2019-01-13T09:10:39.949Z,1408.00
2019-01-13T09:11:39.987Z,1236.00
2019-01-13T09:12:39.877Z,1140.00
2019-01-13T09:13:39.901Z,1260.00
2019-01-13T09:14:39.862Z,1596.00
2019-01-13T09:15:39.783Z,1692.00
2019-01-13T09:16:39.751Z,1828.00
2019-01-13T09:17:39.719Z,1612.00
2019-01-13T09:18:39.726Z,1512.00
2019-01-13T09:19:39.656Z,1436.00
2019-01-13T09:20:39.621Z,1704.00
2019-01-13T09:21:39.630Z,1828.00
2019-01-13T09:22:39.562Z,1568.00
2019-01-13T09:23:39.573Z,1556.00
2019-01-13T09:24:39.534Z,1540.00
2019-01-13T09:25:39.506Z,1636.00
2019-01-13T09:26:39.436Z,2104.00
2019-01-13T09:27:39.402Z,2116.00
2019-01-13T09:28:39.370Z,2708.00
2019-01-13T09:29:42.532Z,2400.00
2019-01-13T09:30:39.357Z,2604.00
2019-01-13T09:31:39.267Z,2708.00
2019-01-13T09:32:39.689Z,2312.00
2019-01-13T09:33:39.204Z,2476.00
2019-01-13T09:34:39.178Z,2164.00
2019-01-13T09:35:39.198Z,2460.00
2019-01-13T09:36:39.156Z,2212.00
2019-01-13T09:37:39.089Z,2344.00
2019-01-13T09:38:39.113Z,2184.00
2019-01-13T09:39:39.022Z,2400.00
2019-01-13T09:40:38.983Z,2360.00
2019-01-13T09:41:38.949Z,2528.00
2019-01-13T09:42:38.993Z,2592.00
2019-01-13T09:43:38.887Z,3100.00
2019-01-13T09:44:38.863Z,3504.00
2019-01-13T09:45:38.821Z,4168.00
2019-01-13T09:46:38.836Z,4132.00
2019-01-13T09:47:38.765Z,3876.00
2019-01-13T09:48:38.915Z,3816.00
2019-01-13T09:49:38.700Z,3508.00
2019-01-13T09:50:38.676Z,3276.00
2019-01-13T09:51:38.641Z,3904.00
2019-01-13T09:52:38.594Z,3880.00
2019-01-13T09:53:38.610Z,4036.00
2019-01-13T09:54:38.532Z,3552.00
2019-01-13T09:55:38.563Z,3456.00
2019-01-13T09:56:38.470Z,3028.00
2019-01-13T09:57:38.441Z,2636.00
2019-01-13T09:58:38.408Z,2768.00
2019-01-13T09:59:38.384Z,2672.00
2019-01-13T10:00:38.396Z,2772.00
2019-01-13T10:01:38.372Z,2536.00
2019-01-13T10:02:38.278Z,2604.00
2019-01-13T10:03:38.250Z,2348.00
2019-01-13T10:04:38.243Z,2120.00
2019-01-13T10:05:38.191Z,2312.00
2019-01-13T10:06:38.215Z,2264.00
2019-01-13T10:07:38.143Z,2432.00
2019-01-13T10:08:38.132Z,3520.00
2019-01-13T10:09:38.076Z,3588.00
2019-01-13T10:10:38.054Z,3584.00
2019-01-13T10:11:38.077Z,3152.00
2019-01-13T10:12:38.165Z,3804.00
2019-01-13T10:13:37.957Z,3692.00
2019-01-13T10:14:37.948Z,3540.00
2019-01-13T10:15:37.881Z,2952.00
2019-01-13T10:16:37.850Z,3648.00
2019-01-13T10:17:37.873Z,4036.00
2019-01-13T10:18:37.844Z,4244.00
2019-01-13T10:19:37.768Z,3940.00
2019-01-13T10:20:37.726Z,3380.00
2019-01-13T10:21:37.687Z,3964.00
2019-01-13T10:22:37.657Z,3804.00
2019-01-13T10:23:37.690Z,4808.00
2019-01-13T10:24:37.623Z,5408.00
2019-01-13T10:25:37.566Z,5176.00
2019-01-13T10:26:37.533Z,4276.00
2019-01-13T10:27:37.498Z,3840.00
2019-01-13T10:28:37.534Z,3808.00
2019-01-13T10:29:37.438Z,4060.00
2019-01-13T10:30:37.406Z,4160.00
2019-01-13T10:31:37.371Z,4208.00
2019-01-13T10:32:37.340Z,4020.00
2019-01-13T10:33:37.367Z,3952.00
2019-01-13T10:34:37.368Z,4700.00
2019-01-13T10:35:37.252Z,4232.00
2019-01-13T10:36:37.214Z,3636.00
2019-01-13T10:37:37.256Z,3148.00
2019-01-13T10:38:37.162Z,3260.00
2019-01-13T10:39:37.116Z,3824.00
2019-01-13T10:40:37.078Z,3980.00
2019-01-13T10:41:37.042Z,3728.00
2019-01-13T10:42:37.049Z,4792.00
2019-01-13T10:43:37.020Z,5036.00
2019-01-13T10:44:36.954Z,5448.00
2019-01-13T10:45:36.921Z,4652.00
2019-01-13T10:46:36.927Z,4748.00
2019-01-13T10:47:36.846Z,3904.00
2019-01-13T10:48:36.817Z,4108.00
2019-01-13T10:49:36.788Z,3464.00
2019-01-13T10:50:36.758Z,2744.00
2019-01-13T10:51:36.763Z,2852.00
2019-01-13T10:52:36.694Z,2888.00
2019-01-13T10:53:36.665Z,2972.00
2019-01-13T10:54:36.633Z,2552.00
2019-01-13T10:55:36.692Z,2420.00
2019-01-13T10:56:36.568Z,2588.00
2019-01-13T10:57:36.535Z,3048.00
2019-01-13T10:58:36.517Z,2948.00
2019-01-13T10:59:36.510Z,2708.00
2019-01-13T11:00:36.487Z,3420.00
2019-01-13T11:01:36.405Z,3144.00
2019-01-13T11:02:36.418Z,3108.00
2019-01-13T11:03:36.344Z,3100.00
2019-01-13T11:04:36.316Z,3172.00
2019-01-13T11:05:36.282Z,2792.00
2019-01-13T11:06:36.245Z,2588.00
2019-01-13T11:07:36.258Z,2844.00
2019-01-13T11:08:36.231Z,2472.00
2019-01-13T11:09:36.153Z,2692.00
2019-01-13T11:10:36.168Z,2816.00
2019-01-13T11:11:36.085Z,3100.00
2019-01-13T11:12:36.058Z,2872.00
2019-01-13T11:13:36.022Z,2576.00
2019-01-13T11:14:35.992Z,2860.00
2019-01-13T11:15:36.014Z,3432.00
2019-01-13T11:16:36.000Z,3572.00
2019-01-13T11:17:35.898Z,3304.00
2019-01-13T11:18:35.875Z,2664.00
2019-01-13T11:19:35.877Z,2296.00
2019-01-13T11:20:35.805Z,2092.00
2019-01-13T11:21:35.828Z,2172.00
2019-01-13T11:22:36.314Z,2476.00
2019-01-13T11:23:35.707Z,2688.00
2019-01-13T11:24:35.677Z,2784.00
2019-01-13T11:25:35.641Z,2996.00
2019-01-13T11:26:35.653Z,3444.00
2019-01-13T11:27:35.634Z,3400.00
2019-01-13T11:28:35.546Z,4016.00
2019-01-13T11:29:35.517Z,3880.00
2019-01-13T11:30:35.534Z,3004.00
2019-01-13T11:31:35.471Z,2828.00
2019-01-13T11:32:35.478Z,2500.00
2019-01-13T11:33:35.387Z,2296.00
2019-01-13T11:34:35.383Z,2308.00
2019-01-13T11:35:35.352Z,2116.00
2019-01-13T11:36:35.300Z,1860.00
2019-01-13T11:37:35.311Z,1952.00
2019-01-13T11:38:35.254Z,1924.00
2019-01-13T11:39:35.204Z,2264.00
2019-01-13T11:40:35.270Z,2228.00
2019-01-13T11:41:35.213Z,2300.00
2019-01-13T11:42:35.104Z,2732.00
2019-01-13T11:43:35.105Z,2352.00
2019-01-13T11:44:35.052Z,2320.00
2019-01-13T11:45:35.056Z,2164.00
2019-01-13T11:46:34.983Z,2172.00
2019-01-13T11:47:34.938Z,1992.00
2019-01-13T11:48:34.969Z,2216.00
2019-01-13T11:49:34.874Z,2560.00
2019-01-13T11:50:34.840Z,2800.00
2019-01-13T11:51:34.808Z,2480.00
2019-01-13T11:52:34.776Z,2364.00
2019-01-13T11:53:34.811Z,2172.00
2019-01-13T11:54:34.737Z,2276.00
2019-01-13T11:55:34.682Z,2352.00
2019-01-13T11:56:34.648Z,2148.00
2019-01-13T11:57:34.626Z,1932.00
2019-01-13T11:58:34.646Z,1828.00
2019-01-13T11:59:34.561Z,1964.00
2019-01-13T12:00:34.520Z,1712.00
2019-01-13T12:01:34.491Z,2164.00
2019-01-13T12:02:34.459Z,2160.00
2019-01-13T12:03:34.481Z,2452.00
2019-01-13T12:04:34.398Z,2820.00
2019-01-13T12:05:34.355Z,3632.00
2019-01-13T12:06:34.328Z,4512.00
2019-01-13T12:07:34.293Z,4256.00
2019-01-13T12:08:34.313Z,3860.00
2019-01-13T12:09:34.228Z,3336.00
2019-01-13T12:10:34.199Z,2864.00
2019-01-13T12:11:34.213Z,2612.00
2019-01-13T12:12:34.133Z,2740.00
2019-01-13T12:13:34.101Z,2712.00
2019-01-13T12:14:34.113Z,2404.00
2019-01-13T12:15:34.101Z,2524.00
2019-01-13T12:16:34.006Z,2456.00
2019-01-13T12:17:33.976Z,2264.00
2019-01-13T12:18:40.351Z,2068.00
2019-01-13T12:19:33.912Z,2288.00
2019-01-13T12:20:33.938Z,2076.00
2019-01-13T12:21:33.849Z,1992.00
2019-01-13T12:22:33.865Z,1940.00
2019-01-13T12:23:33.783Z,2544.00
2019-01-13T12:24:33.751Z,2524.00
2019-01-13T12:25:33.762Z,3100.00
2019-01-13T12:26:33.685Z,2612.00
2019-01-13T12:27:33.654Z,2280.00
2019-01-13T12:28:33.680Z,2116.00
2019-01-13T12:29:33.587Z,2132.00
2019-01-13T12:30:33.553Z,1700.00
2019-01-13T12:31:33.547Z,1620.00
2019-01-13T12:32:33.500Z,1584.00
2019-01-13T12:33:33.518Z,1640.00
2019-01-13T12:34:33.429Z,1600.00
2019-01-13T12:35:33.467Z,1756.00
2019-01-13T12:36:33.371Z,1900.00
2019-01-13T12:37:33.335Z,2252.00
2019-01-13T12:38:33.298Z,2024.00
2019-01-13T12:39:33.265Z,1996.00
2019-01-13T12:40:33.303Z,2104.00
2019-01-13T12:41:33.201Z,1816.00
2019-01-13T12:42:33.173Z,2144.00
2019-01-13T12:43:33.137Z,2184.00
2019-01-13T12:44:33.109Z,2120.00
2019-01-13T12:45:33.118Z,2376.00
2019-01-13T12:46:33.043Z,2528.00